sensor_id;sensor_type;location;lat;lon;timestamp;P1;durP1;ratioP1;P2;durP2;ratioP2
6763;SDS011;47432;48.760;9.178;2023-08-30T00:00:57;16.37;;;10.13;;
6763;SDS011;47432;48.760;9.178;2023-08-30T00:03:23;16.80;;;9.73;;
6763;SDS011;47432;48.760;9.178;2023-08-30T00:05:49;17.60;;;10.20;;
6763;SDS011;47432;48.760;9.178;2023-08-30T00:08:14;17.70;;;10.00;;
6763;SDS011;47432;48.760;9.178;2023-08-30T00:10:44;17.50;;;9.70;;
6763;SDS011;47432;48.760;9.178;2023-08-30T00:13:11;16.10;;;9.63;;
6763;SDS011;47432;48.760;9.178;2023-08-30T00:15:37;16.20;;;9.50;;
6763;SDS011;47432;48.760;9.178;2023-08-30T00:18:03;17.37;;;10.20;;
6763;SDS011;47432;48.760;9.178;2023-08-30T00:20:29;18.03;;;9.93;;
6763;SDS011;47432;48.760;9.178;2023-08-30T00:22:55;18.43;;;10.60;;
6763;SDS011;47432;48.760;9.178;2023-08-30T00:25:23;18.90;;;12.20;;
6763;SDS011;47432;48.760;9.178;2023-08-30T00:27:49;17.57;;;10.20;;
6763;SDS011;47432;48.760;9.178;2023-08-30T00:30:14;17.87;;;10.60;;
6763;SDS011;47432;48.760;9.178;2023-08-30T00:32:40;18.97;;;9.70;;
6763;SDS011;47432;48.760;9.178;2023-08-30T00:35:06;16.30;;;9.90;;
6763;SDS011;47432;48.760;9.178;2023-08-30T00:37:32;19.93;;;10.67;;
6763;SDS011;47432;48.760;9.178;2023-08-30T00:39:58;19.40;;;10.30;;
6763;SDS011;47432;48.760;9.178;2023-08-30T00:42:24;16.10;;;9.63;;
6763;SDS011;47432;48.760;9.178;2023-08-30T00:44:50;16.47;;;9.40;;
6763;SDS011;47432;48.760;9.178;2023-08-30T00:47:16;17.43;;;10.17;;
6763;SDS011;47432;48.760;9.178;2023-08-30T00:49:42;20.37;;;10.07;;
6763;SDS011;47432;48.760;9.178;2023-08-30T00:52:08;19.70;;;10.60;;
6763;SDS011;47432;48.760;9.178;2023-08-30T00:54:36;17.40;;;9.80;;
6763;SDS011;47432;48.760;9.178;2023-08-30T00:57:02;15.70;;;9.10;;
6763;SDS011;47432;48.760;9.178;2023-08-30T00:59:29;15.67;;;9.53;;
6763;SDS011;47432;48.760;9.178;2023-08-30T01:01:58;17.50;;;9.60;;
6763;SDS011;47432;48.760;9.178;2023-08-30T01:04:26;16.80;;;9.87;;
6763;SDS011;47432;48.760;9.178;2023-08-30T01:06:52;16.47;;;10.03;;
6763;SDS011;47432;48.760;9.178;2023-08-30T01:09:21;16.83;;;9.60;;
6763;SDS011;47432;48.760;9.178;2023-08-30T01:17:20;17.97;;;10.00;;
6763;SDS011;47432;48.760;9.178;2023-08-30T01:19:55;17.03;;;9.40;;
6763;SDS011;47432;48.760;9.178;2023-08-30T01:28:30;16.03;;;9.33;;
6763;SDS011;47432;48.760;9.178;2023-08-30T01:30:57;14.97;;;9.37;;
6763;SDS011;47432;48.760;9.178;2023-08-30T01:33:24;18.33;;;9.70;;
6763;SDS011;47432;48.760;9.178;2023-08-30T01:35:53;15.97;;;9.23;;
6763;SDS011;47432;48.760;9.178;2023-08-30T01:38:20;18.13;;;9.40;;
6763;SDS011;47432;48.760;9.178;2023-08-30T01:40:52;16.97;;;9.93;;
6763;SDS011;47432;48.760;9.178;2023-08-30T01:43:20;17.23;;;10.67;;
6763;SDS011;47432;48.760;9.178;2023-08-30T01:45:46;16.10;;;10.13;;
6763;SDS011;47432;48.760;9.178;2023-08-30T01:48:16;20.17;;;9.30;;
6763;SDS011;47432;48.760;9.178;2023-08-30T01:50:43;17.67;;;10.10;;
6763;SDS011;47432;48.760;9.178;2023-08-30T01:53:14;16.50;;;9.63;;
6763;SDS011;47432;48.760;9.178;2023-08-30T01:55:40;16.10;;;9.60;;
6763;SDS011;47432;48.760;9.178;2023-08-30T01:58:10;21.77;;;9.93;;
6763;SDS011;47432;48.760;9.178;2023-08-30T02:00:36;16.53;;;9.17;;
6763;SDS011;47432;48.760;9.178;2023-08-30T02:03:12;15.90;;;9.00;;
6763;SDS011;47432;48.760;9.178;2023-08-30T02:06:04;18.20;;;10.10;;
6763;SDS011;47432;48.760;9.178;2023-08-30T02:09:01;17.30;;;9.73;;
6763;SDS011;47432;48.760;9.178;2023-08-30T02:11:43;16.37;;;9.17;;
6763;SDS011;47432;48.760;9.178;2023-08-30T02:14:11;16.93;;;10.37;;
6763;SDS011;47432;48.760;9.178;2023-08-30T02:16:42;19.53;;;9.87;;
6763;SDS011;47432;48.760;9.178;2023-08-30T02:19:10;18.87;;;10.27;;
6763;SDS011;47432;48.760;9.178;2023-08-30T02:21:39;16.50;;;9.80;;
6763;SDS011;47432;48.760;9.178;2023-08-30T02:24:05;16.77;;;9.43;;
6763;SDS011;47432;48.760;9.178;2023-08-30T02:26:34;17.97;;;9.80;;
6763;SDS011;47432;48.760;9.178;2023-08-30T02:29:02;20.10;;;11.00;;
6763;SDS011;47432;48.760;9.178;2023-08-30T02:31:29;18.83;;;10.43;;
6763;SDS011;47432;48.760;9.178;2023-08-30T02:33:54;18.60;;;10.87;;
6763;SDS011;47432;48.760;9.178;2023-08-30T02:36:20;18.10;;;10.83;;
6763;SDS011;47432;48.760;9.178;2023-08-30T02:38:46;17.93;;;10.73;;
6763;SDS011;47432;48.760;9.178;2023-08-30T02:41:11;18.00;;;10.00;;
6763;SDS011;47432;48.760;9.178;2023-08-30T02:43:37;17.90;;;10.67;;
6763;SDS011;47432;48.760;9.178;2023-08-30T02:46:05;18.07;;;9.70;;
6763;SDS011;47432;48.760;9.178;2023-08-30T02:48:31;18.40;;;10.87;;
6763;SDS011;47432;48.760;9.178;2023-08-30T02:51:01;16.77;;;9.43;;
6763;SDS011;47432;48.760;9.178;2023-08-30T02:53:26;17.67;;;10.37;;
6763;SDS011;47432;48.760;9.178;2023-08-30T02:55:52;15.90;;;8.77;;
6763;SDS011;47432;48.760;9.178;2023-08-30T02:58:20;17.80;;;9.80;;
6763;SDS011;47432;48.760;9.178;2023-08-30T03:00:46;18.00;;;9.30;;
6763;SDS011;47432;48.760;9.178;2023-08-30T03:03:12;19.10;;;11.13;;
6763;SDS011;47432;48.760;9.178;2023-08-30T03:05:38;19.20;;;10.43;;
6763;SDS011;47432;48.760;9.178;2023-08-30T03:08:04;20.70;;;10.30;;
6763;SDS011;47432;48.760;9.178;2023-08-30T03:10:29;17.83;;;9.70;;
6763;SDS011;47432;48.760;9.178;2023-08-30T03:12:55;18.13;;;10.00;;
6763;SDS011;47432;48.760;9.178;2023-08-30T03:15:21;19.53;;;10.83;;
6763;SDS011;47432;48.760;9.178;2023-08-30T03:17:46;17.77;;;10.47;;
6763;SDS011;47432;48.760;9.178;2023-08-30T03:20:12;20.73;;;11.60;;
6763;SDS011;47432;48.760;9.178;2023-08-30T03:22:38;23.33;;;13.17;;
6763;SDS011;47432;48.760;9.178;2023-08-30T03:25:04;18.60;;;10.50;;
6763;SDS011;47432;48.760;9.178;2023-08-30T03:27:32;18.43;;;11.17;;
6763;SDS011;47432;48.760;9.178;2023-08-30T03:29:58;23.93;;;11.03;;
6763;SDS011;47432;48.760;9.178;2023-08-30T03:32:24;18.70;;;10.80;;
6763;SDS011;47432;48.760;9.178;2023-08-30T03:34:49;18.47;;;10.73;;
6763;SDS011;47432;48.760;9.178;2023-08-30T03:37:16;21.37;;;11.57;;
6763;SDS011;47432;48.760;9.178;2023-08-30T03:39:42;21.23;;;11.80;;
6763;SDS011;47432;48.760;9.178;2023-08-30T03:42:08;19.00;;;11.90;;
6763;SDS011;47432;48.760;9.178;2023-08-30T03:44:34;20.93;;;12.10;;
6763;SDS011;47432;48.760;9.178;2023-08-30T03:47:00;22.57;;;13.60;;
6763;SDS011;47432;48.760;9.178;2023-08-30T03:49:26;18.77;;;11.27;;
6763;SDS011;47432;48.760;9.178;2023-08-30T03:51:52;20.00;;;10.87;;
6763;SDS011;47432;48.760;9.178;2023-08-30T03:54:18;22.80;;;12.47;;
6763;SDS011;47432;48.760;9.178;2023-08-30T03:56:44;19.70;;;11.63;;
6763;SDS011;47432;48.760;9.178;2023-08-30T03:59:11;17.47;;;10.87;;
6763;SDS011;47432;48.760;9.178;2023-08-30T04:01:37;19.60;;;11.40;;
6763;SDS011;47432;48.760;9.178;2023-08-30T04:04:03;17.77;;;10.27;;
6763;SDS011;47432;48.760;9.178;2023-08-30T04:06:31;23.83;;;10.70;;
6763;SDS011;47432;48.760;9.178;2023-08-30T04:08:57;19.40;;;11.17;;
6763;SDS011;47432;48.760;9.178;2023-08-30T04:11:23;19.37;;;11.67;;
6763;SDS011;47432;48.760;9.178;2023-08-30T04:13:49;18.67;;;10.77;;
6763;SDS011;47432;48.760;9.178;2023-08-30T04:16:17;19.80;;;10.43;;
6763;SDS011;47432;48.760;9.178;2023-08-30T04:18:42;18.60;;;9.93;;
6763;SDS011;47432;48.760;9.178;2023-08-30T04:21:08;18.27;;;10.27;;
6763;SDS011;47432;48.760;9.178;2023-08-30T04:23:34;22.53;;;11.40;;
6763;SDS011;47432;48.760;9.178;2023-08-30T04:26:00;19.43;;;10.97;;
6763;SDS011;47432;48.760;9.178;2023-08-30T04:28:26;21.00;;;10.97;;
6763;SDS011;47432;48.760;9.178;2023-08-30T04:30:55;18.80;;;11.00;;
6763;SDS011;47432;48.760;9.178;2023-08-30T04:33:22;20.10;;;11.07;;
6763;SDS011;47432;48.760;9.178;2023-08-30T04:35:51;18.53;;;10.37;;
6763;SDS011;47432;48.760;9.178;2023-08-30T04:38:19;18.20;;;10.60;;
6763;SDS011;47432;48.760;9.178;2023-08-30T04:40:46;19.33;;;10.67;;
6763;SDS011;47432;48.760;9.178;2023-08-30T04:43:14;18.87;;;10.93;;
6763;SDS011;47432;48.760;9.178;2023-08-30T04:45:40;19.37;;;10.07;;
6763;SDS011;47432;48.760;9.178;2023-08-30T04:48:06;18.63;;;11.37;;
6763;SDS011;47432;48.760;9.178;2023-08-30T04:50:32;19.73;;;10.73;;
6763;SDS011;47432;48.760;9.178;2023-08-30T04:52:58;21.47;;;11.90;;
6763;SDS011;47432;48.760;9.178;2023-08-30T04:55:28;18.20;;;10.00;;
6763;SDS011;47432;48.760;9.178;2023-08-30T04:57:54;18.07;;;10.97;;
6763;SDS011;47432;48.760;9.178;2023-08-30T05:00:20;20.30;;;11.63;;
6763;SDS011;47432;48.760;9.178;2023-08-30T05:02:48;18.57;;;10.70;;
6763;SDS011;47432;48.760;9.178;2023-08-30T05:05:17;18.30;;;11.13;;
6763;SDS011;47432;48.760;9.178;2023-08-30T05:07:43;18.83;;;11.40;;
6763;SDS011;47432;48.760;9.178;2023-08-30T05:10:09;18.80;;;11.33;;
6763;SDS011;47432;48.760;9.178;2023-08-30T05:12:35;20.07;;;11.00;;
6763;SDS011;47432;48.760;9.178;2023-08-30T05:15:01;18.33;;;11.03;;
6763;SDS011;47432;48.760;9.178;2023-08-30T05:17:28;18.60;;;11.30;;
6763;SDS011;47432;48.760;9.178;2023-08-30T05:19:54;20.23;;;11.50;;
6763;SDS011;47432;48.760;9.178;2023-08-30T05:22:20;19.13;;;11.10;;
6763;SDS011;47432;48.760;9.178;2023-08-30T05:24:46;18.50;;;9.70;;
6763;SDS011;47432;48.760;9.178;2023-08-30T05:27:12;17.13;;;10.70;;
6763;SDS011;47432;48.760;9.178;2023-08-30T05:29:43;18.60;;;10.67;;
6763;SDS011;47432;48.760;9.178;2023-08-30T05:32:10;17.60;;;10.90;;
6763;SDS011;47432;48.760;9.178;2023-08-30T05:34:36;17.87;;;10.40;;
6763;SDS011;47432;48.760;9.178;2023-08-30T05:37:02;18.30;;;10.87;;
6763;SDS011;47432;48.760;9.178;2023-08-30T05:39:28;16.90;;;10.20;;
6763;SDS011;47432;48.760;9.178;2023-08-30T05:41:53;17.20;;;10.20;;
6763;SDS011;47432;48.760;9.178;2023-08-30T05:44:19;17.03;;;10.10;;
6763;SDS011;47432;48.760;9.178;2023-08-30T05:46:45;21.80;;;10.70;;
6763;SDS011;47432;48.760;9.178;2023-08-30T05:49:13;18.20;;;9.83;;
6763;SDS011;47432;48.760;9.178;2023-08-30T05:51:39;16.53;;;9.93;;
6763;SDS011;47432;48.760;9.178;2023-08-30T05:54:04;20.83;;;10.87;;
6763;SDS011;47432;48.760;9.178;2023-08-30T05:56:35;16.63;;;9.50;;
6763;SDS011;47432;48.760;9.178;2023-08-30T05:59:00;15.17;;;8.83;;
6763;SDS011;47432;48.760;9.178;2023-08-30T06:01:26;17.50;;;9.50;;
6763;SDS011;47432;48.760;9.178;2023-08-30T06:03:52;16.50;;;10.20;;
6763;SDS011;47432;48.760;9.178;2023-08-30T06:06:18;14.90;;;9.50;;
6763;SDS011;47432;48.760;9.178;2023-08-30T06:08:43;14.33;;;8.70;;
6763;SDS011;47432;48.760;9.178;2023-08-30T06:11:09;15.33;;;9.10;;
6763;SDS011;47432;48.760;9.178;2023-08-30T06:13:35;13.67;;;7.70;;
6763;SDS011;47432;48.760;9.178;2023-08-30T06:16:01;13.57;;;8.67;;
6763;SDS011;47432;48.760;9.178;2023-08-30T06:18:29;13.60;;;7.77;;
6763;SDS011;47432;48.760;9.178;2023-08-30T06:20:56;14.60;;;8.03;;
6763;SDS011;47432;48.760;9.178;2023-08-30T06:23:22;12.90;;;7.40;;
6763;SDS011;47432;48.760;9.178;2023-08-30T06:25:54;15.60;;;8.40;;
6763;SDS011;47432;48.760;9.178;2023-08-30T06:28:21;11.97;;;6.60;;
6763;SDS011;47432;48.760;9.178;2023-08-30T06:30:50;13.10;;;7.13;;
6763;SDS011;47432;48.760;9.178;2023-08-30T06:33:16;21.10;;;7.93;;
6763;SDS011;47432;48.760;9.178;2023-08-30T06:35:44;14.00;;;7.87;;
6763;SDS011;47432;48.760;9.178;2023-08-30T06:38:13;18.43;;;9.27;;
6763;SDS011;47432;48.760;9.178;2023-08-30T06:40:42;19.10;;;9.40;;
6763;SDS011;47432;48.760;9.178;2023-08-30T06:43:11;14.50;;;7.60;;
6763;SDS011;47432;48.760;9.178;2023-08-30T06:45:40;13.13;;;7.63;;
6763;SDS011;47432;48.760;9.178;2023-08-30T06:48:09;14.03;;;7.63;;
6763;SDS011;47432;48.760;9.178;2023-08-30T06:50:35;13.30;;;7.27;;
6763;SDS011;47432;48.760;9.178;2023-08-30T06:53:04;12.00;;;7.00;;
6763;SDS011;47432;48.760;9.178;2023-08-30T06:55:29;14.00;;;7.17;;
6763;SDS011;47432;48.760;9.178;2023-08-30T06:58:00;13.33;;;7.20;;
6763;SDS011;47432;48.760;9.178;2023-08-30T07:00:28;12.20;;;5.90;;
6763;SDS011;47432;48.760;9.178;2023-08-30T07:02:56;10.93;;;5.47;;
6763;SDS011;47432;48.760;9.178;2023-08-30T07:05:23;11.50;;;6.07;;
6763;SDS011;47432;48.760;9.178;2023-08-30T07:07:48;13.43;;;7.57;;
6763;SDS011;47432;48.760;9.178;2023-08-30T07:10:17;14.33;;;6.50;;
6763;SDS011;47432;48.760;9.178;2023-08-30T07:12:42;12.30;;;6.30;;
6763;SDS011;47432;48.760;9.178;2023-08-30T07:15:10;11.53;;;6.97;;
6763;SDS011;47432;48.760;9.178;2023-08-30T07:17:35;12.10;;;6.43;;
6763;SDS011;47432;48.760;9.178;2023-08-30T07:20:01;13.90;;;6.67;;
6763;SDS011;47432;48.760;9.178;2023-08-30T07:22:29;11.17;;;5.93;;
6763;SDS011;47432;48.760;9.178;2023-08-30T07:24:55;11.27;;;6.77;;
6763;SDS011;47432;48.760;9.178;2023-08-30T07:27:27;12.60;;;6.57;;
6763;SDS011;47432;48.760;9.178;2023-08-30T07:29:58;11.90;;;7.20;;
6763;SDS011;47432;48.760;9.178;2023-08-30T07:32:24;11.93;;;6.50;;
6763;SDS011;47432;48.760;9.178;2023-08-30T07:34:50;13.90;;;6.63;;
6763;SDS011;47432;48.760;9.178;2023-08-30T07:37:20;10.90;;;6.53;;
6763;SDS011;47432;48.760;9.178;2023-08-30T07:39:46;12.53;;;6.00;;
6763;SDS011;47432;48.760;9.178;2023-08-30T07:42:12;11.50;;;6.77;;
6763;SDS011;47432;48.760;9.178;2023-08-30T07:44:39;10.60;;;6.33;;
6763;SDS011;47432;48.760;9.178;2023-08-30T07:47:09;11.00;;;6.73;;
6763;SDS011;47432;48.760;9.178;2023-08-30T07:49:34;10.67;;;6.20;;
6763;SDS011;47432;48.760;9.178;2023-08-30T07:52:00;10.07;;;5.77;;
6763;SDS011;47432;48.760;9.178;2023-08-30T07:54:26;10.70;;;6.20;;
6763;SDS011;47432;48.760;9.178;2023-08-30T07:56:51;12.23;;;6.60;;
6763;SDS011;47432;48.760;9.178;2023-08-30T07:59:17;10.20;;;5.43;;
6763;SDS011;47432;48.760;9.178;2023-08-30T08:01:43;12.13;;;6.23;;
6763;SDS011;47432;48.760;9.178;2023-08-30T08:04:09;10.60;;;6.17;;
6763;SDS011;47432;48.760;9.178;2023-08-30T08:06:34;10.70;;;5.80;;
6763;SDS011;47432;48.760;9.178;2023-08-30T08:09:00;10.50;;;6.60;;
6763;SDS011;47432;48.760;9.178;2023-08-30T08:11:26;10.53;;;5.67;;
6763;SDS011;47432;48.760;9.178;2023-08-30T08:13:52;11.60;;;5.90;;
6763;SDS011;47432;48.760;9.178;2023-08-30T08:16:18;9.93;;;6.00;;
6763;SDS011;47432;48.760;9.178;2023-08-30T08:18:44;9.67;;;5.33;;
6763;SDS011;47432;48.760;9.178;2023-08-30T08:21:10;10.10;;;5.97;;
6763;SDS011;47432;48.760;9.178;2023-08-30T08:23:36;9.57;;;5.90;;
6763;SDS011;47432;48.760;9.178;2023-08-30T08:26:01;9.80;;;6.40;;
6763;SDS011;47432;48.760;9.178;2023-08-30T08:28:32;10.67;;;6.90;;
6763;SDS011;47432;48.760;9.178;2023-08-30T08:30:58;9.93;;;6.53;;
6763;SDS011;47432;48.760;9.178;2023-08-30T08:33:24;8.77;;;5.20;;
6763;SDS011;47432;48.760;9.178;2023-08-30T08:35:50;11.27;;;6.73;;
6763;SDS011;47432;48.760;9.178;2023-08-30T08:38:15;9.07;;;5.77;;
6763;SDS011;47432;48.760;9.178;2023-08-30T08:40:41;9.97;;;5.77;;
6763;SDS011;47432;48.760;9.178;2023-08-30T08:43:09;8.77;;;5.40;;
6763;SDS011;47432;48.760;9.178;2023-08-30T08:45:38;11.03;;;6.20;;
6763;SDS011;47432;48.760;9.178;2023-08-30T08:48:04;8.63;;;5.60;;
6763;SDS011;47432;48.760;9.178;2023-08-30T08:50:34;8.77;;;4.83;;
6763;SDS011;47432;48.760;9.178;2023-08-30T08:53:03;9.40;;;5.00;;
6763;SDS011;47432;48.760;9.178;2023-08-30T08:55:30;9.70;;;5.90;;
6763;SDS011;47432;48.760;9.178;2023-08-30T08:57:59;8.33;;;5.30;;
6763;SDS011;47432;48.760;9.178;2023-08-30T09:00:25;8.10;;;4.73;;
6763;SDS011;47432;48.760;9.178;2023-08-30T09:02:52;8.03;;;4.43;;
6763;SDS011;47432;48.760;9.178;2023-08-30T09:05:19;7.20;;;4.00;;
6763;SDS011;47432;48.760;9.178;2023-08-30T09:07:45;8.50;;;4.80;;
6763;SDS011;47432;48.760;9.178;2023-08-30T09:10:12;8.50;;;4.23;;
6763;SDS011;47432;48.760;9.178;2023-08-30T09:12:38;7.53;;;3.70;;
6763;SDS011;47432;48.760;9.178;2023-08-30T09:15:03;8.47;;;4.20;;
6763;SDS011;47432;48.760;9.178;2023-08-30T09:17:36;7.93;;;4.10;;
6763;SDS011;47432;48.760;9.178;2023-08-30T09:20:10;7.47;;;4.40;;
6763;SDS011;47432;48.760;9.178;2023-08-30T09:25:08;8.10;;;4.90;;
6763;SDS011;47432;48.760;9.178;2023-08-30T09:27:39;10.23;;;3.70;;
6763;SDS011;47432;48.760;9.178;2023-08-30T09:30:06;7.63;;;3.80;;
6763;SDS011;47432;48.760;9.178;2023-08-30T09:32:39;10.50;;;3.70;;
6763;SDS011;47432;48.760;9.178;2023-08-30T09:35:08;7.50;;;3.90;;
6763;SDS011;47432;48.760;9.178;2023-08-30T09:37:34;8.03;;;4.30;;
6763;SDS011;47432;48.760;9.178;2023-08-30T09:40:00;8.00;;;3.97;;
6763;SDS011;47432;48.760;9.178;2023-08-30T09:42:26;7.67;;;4.30;;
6763;SDS011;47432;48.760;9.178;2023-08-30T09:44:52;7.93;;;3.77;;
6763;SDS011;47432;48.760;9.178;2023-08-30T09:47:18;7.00;;;3.60;;
6763;SDS011;47432;48.760;9.178;2023-08-30T09:49:46;9.77;;;3.83;;
6763;SDS011;47432;48.760;9.178;2023-08-30T09:52:14;6.60;;;3.53;;
6763;SDS011;47432;48.760;9.178;2023-08-30T09:54:41;7.17;;;3.13;;
6763;SDS011;47432;48.760;9.178;2023-08-30T09:57:09;9.43;;;3.40;;
6763;SDS011;47432;48.760;9.178;2023-08-30T09:59:38;7.93;;;3.47;;
6763;SDS011;47432;48.760;9.178;2023-08-30T10:02:05;7.27;;;3.30;;
6763;SDS011;47432;48.760;9.178;2023-08-30T10:04:33;6.50;;;2.97;;
6763;SDS011;47432;48.760;9.178;2023-08-30T10:07:03;6.50;;;2.87;;
6763;SDS011;47432;48.760;9.178;2023-08-30T10:09:30;6.53;;;3.10;;
6763;SDS011;47432;48.760;9.178;2023-08-30T10:11:57;6.67;;;2.73;;
6763;SDS011;47432;48.760;9.178;2023-08-30T10:14:23;6.83;;;2.60;;
6763;SDS011;47432;48.760;9.178;2023-08-30T10:16:49;7.80;;;3.00;;
6763;SDS011;47432;48.760;9.178;2023-08-30T10:19:27;6.83;;;2.53;;
6763;SDS011;47432;48.760;9.178;2023-08-30T10:22:03;6.07;;;2.03;;
6763;SDS011;47432;48.760;9.178;2023-08-30T10:24:40;9.03;;;3.03;;
6763;SDS011;47432;48.760;9.178;2023-08-30T10:27:13;7.10;;;3.10;;
6763;SDS011;47432;48.760;9.178;2023-08-30T10:29:41;6.47;;;2.23;;
6763;SDS011;47432;48.760;9.178;2023-08-30T10:32:09;7.07;;;2.10;;
6763;SDS011;47432;48.760;9.178;2023-08-30T10:34:35;7.07;;;2.03;;
6763;SDS011;47432;48.760;9.178;2023-08-30T10:37:02;7.10;;;2.10;;
6763;SDS011;47432;48.760;9.178;2023-08-30T10:39:41;8.60;;;2.27;;
6763;SDS011;47432;48.760;9.178;2023-08-30T10:42:14;6.63;;;2.03;;
6763;SDS011;47432;48.760;9.178;2023-08-30T10:44:57;7.40;;;2.30;;
6763;SDS011;47432;48.760;9.178;2023-08-30T10:47:31;8.83;;;2.93;;
6763;SDS011;47432;48.760;9.178;2023-08-30T10:50:05;6.20;;;1.87;;
6763;SDS011;47432;48.760;9.178;2023-08-30T10:52:37;7.50;;;2.03;;
6763;SDS011;47432;48.760;9.178;2023-08-30T10:55:11;6.10;;;2.30;;
6763;SDS011;47432;48.760;9.178;2023-08-30T10:57:43;7.30;;;2.40;;
6763;SDS011;47432;48.760;9.178;2023-08-30T11:00:20;7.00;;;2.47;;
6763;SDS011;47432;48.760;9.178;2023-08-30T11:02:50;6.77;;;2.07;;
6763;SDS011;47432;48.760;9.178;2023-08-30T11:05:18;6.80;;;2.60;;
6763;SDS011;47432;48.760;9.178;2023-08-30T11:07:47;7.03;;;2.20;;
6763;SDS011;47432;48.760;9.178;2023-08-30T11:10:16;7.17;;;2.50;;
6763;SDS011;47432;48.760;9.178;2023-08-30T11:12:44;7.43;;;2.10;;
6763;SDS011;47432;48.760;9.178;2023-08-30T11:15:11;7.20;;;2.50;;
6763;SDS011;47432;48.760;9.178;2023-08-30T11:17:39;7.20;;;2.30;;
6763;SDS011;47432;48.760;9.178;2023-08-30T11:20:16;6.70;;;2.30;;
6763;SDS011;47432;48.760;9.178;2023-08-30T11:22:45;7.67;;;2.37;;
6763;SDS011;47432;48.760;9.178;2023-08-30T11:25:12;6.70;;;2.63;;
6763;SDS011;47432;48.760;9.178;2023-08-30T11:27:40;6.30;;;2.37;;
6763;SDS011;47432;48.760;9.178;2023-08-30T11:30:07;6.73;;;2.37;;
6763;SDS011;47432;48.760;9.178;2023-08-30T11:32:36;6.00;;;2.00;;
6763;SDS011;47432;48.760;9.178;2023-08-30T11:35:09;6.50;;;1.90;;
6763;SDS011;47432;48.760;9.178;2023-08-30T11:37:34;5.80;;;1.73;;
6763;SDS011;47432;48.760;9.178;2023-08-30T11:40:03;6.57;;;2.13;;
6763;SDS011;47432;48.760;9.178;2023-08-30T11:42:31;6.27;;;2.50;;
6763;SDS011;47432;48.760;9.178;2023-08-30T11:44:58;6.87;;;2.53;;
6763;SDS011;47432;48.760;9.178;2023-08-30T11:47:24;7.90;;;2.53;;
6763;SDS011;47432;48.760;9.178;2023-08-30T11:49:57;7.10;;;2.80;;
6763;SDS011;47432;48.760;9.178;2023-08-30T11:52:24;7.53;;;3.37;;
6763;SDS011;47432;48.760;9.178;2023-08-30T11:54:51;7.10;;;3.27;;
6763;SDS011;47432;48.760;9.178;2023-08-30T11:57:17;6.40;;;2.50;;
6763;SDS011;47432;48.760;9.178;2023-08-30T11:59:43;8.97;;;3.33;;
6763;SDS011;47432;48.760;9.178;2023-08-30T12:02:09;6.67;;;2.73;;
6763;SDS011;47432;48.760;9.178;2023-08-30T12:04:41;6.80;;;2.80;;
6763;SDS011;47432;48.760;9.178;2023-08-30T12:07:09;6.90;;;2.63;;
6763;SDS011;47432;48.760;9.178;2023-08-30T12:09:38;6.20;;;2.40;;
6763;SDS011;47432;48.760;9.178;2023-08-30T12:12:10;6.50;;;2.93;;
6763;SDS011;47432;48.760;9.178;2023-08-30T12:14:36;8.13;;;2.27;;
6763;SDS011;47432;48.760;9.178;2023-08-30T12:17:03;6.63;;;2.50;;
6763;SDS011;47432;48.760;9.178;2023-08-30T12:19:29;6.20;;;2.30;;
6763;SDS011;47432;48.760;9.178;2023-08-30T12:22:02;6.33;;;2.47;;
6763;SDS011;47432;48.760;9.178;2023-08-30T12:24:39;7.57;;;2.43;;
6763;SDS011;47432;48.760;9.178;2023-08-30T12:27:14;6.63;;;2.93;;
6763;SDS011;47432;48.760;9.178;2023-08-30T12:29:40;6.60;;;2.87;;
6763;SDS011;47432;48.760;9.178;2023-08-30T12:32:08;6.27;;;2.83;;
6763;SDS011;47432;48.760;9.178;2023-08-30T12:34:34;8.43;;;2.50;;
6763;SDS011;47432;48.760;9.178;2023-08-30T12:37:02;6.30;;;2.77;;
6763;SDS011;47432;48.760;9.178;2023-08-30T12:39:29;7.10;;;2.93;;
6763;SDS011;47432;48.760;9.178;2023-08-30T12:41:57;6.20;;;2.53;;
6763;SDS011;47432;48.760;9.178;2023-08-30T12:44:22;8.23;;;3.00;;
6763;SDS011;47432;48.760;9.178;2023-08-30T12:46:48;8.17;;;2.77;;
6763;SDS011;47432;48.760;9.178;2023-08-30T12:49:14;6.10;;;2.60;;
6763;SDS011;47432;48.760;9.178;2023-08-30T12:51:42;10.70;;;2.93;;
6763;SDS011;47432;48.760;9.178;2023-08-30T12:54:08;6.20;;;2.53;;
6763;SDS011;47432;48.760;9.178;2023-08-30T12:56:34;7.77;;;2.40;;
6763;SDS011;47432;48.760;9.178;2023-08-30T12:58:59;6.90;;;2.60;;
6763;SDS011;47432;48.760;9.178;2023-08-30T13:01:25;6.97;;;2.63;;
6763;SDS011;47432;48.760;9.178;2023-08-30T13:03:51;16.93;;;2.77;;
6763;SDS011;47432;48.760;9.178;2023-08-30T13:06:16;6.30;;;2.60;;
6763;SDS011;47432;48.760;9.178;2023-08-30T13:08:47;6.80;;;2.37;;
6763;SDS011;47432;48.760;9.178;2023-08-30T13:11:13;6.50;;;2.47;;
6763;SDS011;47432;48.760;9.178;2023-08-30T13:13:39;7.10;;;2.20;;
6763;SDS011;47432;48.760;9.178;2023-08-30T13:16:04;6.50;;;2.43;;
6763;SDS011;47432;48.760;9.178;2023-08-30T13:18:30;6.30;;;2.63;;
6763;SDS011;47432;48.760;9.178;2023-08-30T13:20:56;11.40;;;2.97;;
6763;SDS011;47432;48.760;9.178;2023-08-30T13:23:22;6.27;;;2.10;;
6763;SDS011;47432;48.760;9.178;2023-08-30T13:25:50;6.93;;;2.63;;
6763;SDS011;47432;48.760;9.178;2023-08-30T13:28:15;6.30;;;2.27;;
6763;SDS011;47432;48.760;9.178;2023-08-30T13:30:44;6.67;;;2.63;;
6763;SDS011;47432;48.760;9.178;2023-08-30T13:33:11;6.67;;;2.70;;
6763;SDS011;47432;48.760;9.178;2023-08-30T13:35:38;7.00;;;2.70;;
6763;SDS011;47432;48.760;9.178;2023-08-30T13:38:04;5.93;;;2.00;;
6763;SDS011;47432;48.760;9.178;2023-08-30T13:40:30;6.80;;;2.10;;
6763;SDS011;47432;48.760;9.178;2023-08-30T13:42:55;6.40;;;2.10;;
6763;SDS011;47432;48.760;9.178;2023-08-30T13:45:21;7.13;;;2.10;;
6763;SDS011;47432;48.760;9.178;2023-08-30T13:47:47;6.10;;;1.97;;
6763;SDS011;47432;48.760;9.178;2023-08-30T13:50:12;6.20;;;1.50;;
6763;SDS011;47432;48.760;9.178;2023-08-30T13:52:38;6.27;;;1.63;;
6763;SDS011;47432;48.760;9.178;2023-08-30T13:55:04;7.20;;;2.10;;
6763;SDS011;47432;48.760;9.178;2023-08-30T13:57:30;5.80;;;1.50;;
6763;SDS011;47432;48.760;9.178;2023-08-30T13:59:55;5.70;;;1.70;;
6763;SDS011;47432;48.760;9.178;2023-08-30T14:02:21;6.10;;;1.80;;
6763;SDS011;47432;48.760;9.178;2023-08-30T14:04:49;6.20;;;1.97;;
6763;SDS011;47432;48.760;9.178;2023-08-30T14:07:15;8.57;;;1.70;;
6763;SDS011;47432;48.760;9.178;2023-08-30T14:09:40;7.07;;;2.10;;
6763;SDS011;47432;48.760;9.178;2023-08-30T14:12:06;6.63;;;1.90;;
6763;SDS011;47432;48.760;9.178;2023-08-30T14:14:32;6.43;;;2.13;;
6763;SDS011;47432;48.760;9.178;2023-08-30T14:16:57;7.73;;;2.20;;
6763;SDS011;47432;48.760;9.178;2023-08-30T14:19:23;5.97;;;2.30;;
6763;SDS011;47432;48.760;9.178;2023-08-30T14:21:48;6.17;;;2.00;;
6763;SDS011;47432;48.760;9.178;2023-08-30T14:24:15;7.43;;;2.07;;
6763;SDS011;47432;48.760;9.178;2023-08-30T14:26:40;6.77;;;2.23;;
6763;SDS011;47432;48.760;9.178;2023-08-30T14:29:06;5.50;;;1.70;;
6763;SDS011;47432;48.760;9.178;2023-08-30T14:31:32;6.80;;;2.33;;
6763;SDS011;47432;48.760;9.178;2023-08-30T14:33:57;5.97;;;2.00;;
6763;SDS011;47432;48.760;9.178;2023-08-30T14:36:23;6.80;;;2.10;;
6763;SDS011;47432;48.760;9.178;2023-08-30T14:38:49;6.90;;;2.30;;
6763;SDS011;47432;48.760;9.178;2023-08-30T14:41:14;7.73;;;2.70;;
6763;SDS011;47432;48.760;9.178;2023-08-30T14:43:42;7.00;;;2.10;;
6763;SDS011;47432;48.760;9.178;2023-08-30T14:46:08;6.20;;;2.20;;
6763;SDS011;47432;48.760;9.178;2023-08-30T14:48:34;7.33;;;3.10;;
6763;SDS011;47432;48.760;9.178;2023-08-30T14:51:00;7.77;;;3.00;;
6763;SDS011;47432;48.760;9.178;2023-08-30T14:53:26;8.20;;;3.23;;
6763;SDS011;47432;48.760;9.178;2023-08-30T14:55:52;7.67;;;3.07;;
6763;SDS011;47432;48.760;9.178;2023-08-30T14:58:18;7.03;;;2.70;;
6763;SDS011;47432;48.760;9.178;2023-08-30T15:00:44;6.50;;;2.30;;
6763;SDS011;47432;48.760;9.178;2023-08-30T15:03:12;7.27;;;3.10;;
6763;SDS011;47432;48.760;9.178;2023-08-30T15:05:38;7.30;;;2.93;;